sensor_id;sensor_type;location;lat;lon;timestamp;temperature;humidity
32749;DHT22;19119;52.474;13.710;2023-11-22T00:01:58;0.10;99.90
32749;DHT22;19119;52.474;13.710;2023-11-22T00:04:24;0.00;99.90
32749;DHT22;19119;52.474;13.710;2023-11-22T00:06:50;0.00;99.90
32749;DHT22;19119;52.474;13.710;2023-11-22T00:09:15;0.00;99.90
32749;DHT22;19119;52.474;13.710;2023-11-22T00:11:41;0.10;99.90
32749;DHT22;19119;52.474;13.710;2023-11-22T00:14:06;0.20;99.90
32749;DHT22;19119;52.474;13.710;2023-11-22T00:16:31;0.30;99.90
32749;DHT22;19119;52.474;13.710;2023-11-22T00:18:57;0.30;99.90
32749;DHT22;19119;52.474;13.710;2023-11-22T00:21:22;0.30;99.90
32749;DHT22;19119;52.474;13.710;2023-11-22T00:23:48;0.40;99.90
32749;DHT22;19119;52.474;13.710;2023-11-22T00:26:13;0.40;99.90
32749;DHT22;19119;52.474;13.710;2023-11-22T00:28:40;0.50;99.90
32749;DHT22;19119;52.474;13.710;2023-11-22T00:31:06;0.50;99.90
32749;DHT22;19119;52.474;13.710;2023-11-22T00:33:31;0.60;99.90
32749;DHT22;19119;52.474;13.710;2023-11-22T00:35:57;0.60;99.90
32749;DHT22;19119;52.474;13.710;2023-11-22T00:38:23;0.70;99.90
32749;DHT22;19119;52.474;13.710;2023-11-22T00:40:48;0.70;99.90
32749;DHT22;19119;52.474;13.710;2023-11-22T00:43:15;0.80;99.90
32749;DHT22;19119;52.474;13.710;2023-11-22T00:45:40;0.90;99.90
32749;DHT22;19119;52.474;13.710;2023-11-22T00:48:06;0.90;99.90
32749;DHT22;19119;52.474;13.710;2023-11-22T00:50:31;0.90;99.90
32749;DHT22;19119;52.474;13.710;2023-11-22T00:52:57;0.90;99.90
32749;DHT22;19119;52.474;13.710;2023-11-22T00:55:22;0.90;99.90
32749;DHT22;19119;52.474;13.710;2023-11-22T00:57:48;0.80;99.90
32749;DHT22;19119;52.474;13.710;2023-11-22T01:00:13;0.90;99.90
32749;DHT22;19119;52.474;13.710;2023-11-22T01:02:40;0.90;99.90
32749;DHT22;19119;52.474;13.710;2023-11-22T01:05:06;0.90;99.90
32749;DHT22;19119;52.474;13.710;2023-11-22T01:07:35;0.90;99.90
32749;DHT22;19119;52.474;13.710;2023-11-22T01:10:00;1.00;99.90
32749;DHT22;19119;52.474;13.710;2023-11-22T01:12:26;1.00;99.90
32749;DHT22;19119;52.474;13.710;2023-11-22T01:14:52;0.90;99.90
32749;DHT22;19119;52.474;13.710;2023-11-22T01:17:17;0.90;99.90
32749;DHT22;19119;52.474;13.710;2023-11-22T01:19:42;0.90;99.90
32749;DHT22;19119;52.474;13.710;2023-11-22T01:22:08;0.90;99.90
32749;DHT22;19119;52.474;13.710;2023-11-22T01:24:33;0.80;99.90
32749;DHT22;19119;52.474;13.710;2023-11-22T01:26:59;0.90;99.90
32749;DHT22;19119;52.474;13.710;2023-11-22T01:29:24;0.90;99.90
32749;DHT22;19119;52.474;13.710;2023-11-22T01:31:50;1.00;99.90
32749;DHT22;19119;52.474;13.710;2023-11-22T01:34:15;0.80;99.90
32749;DHT22;19119;52.474;13.710;2023-11-22T01:36:43;0.90;99.90
32749;DHT22;19119;52.474;13.710;2023-11-22T01:39:10;0.90;99.90
32749;DHT22;19119;52.474;13.710;2023-11-22T01:41:36;0.80;99.90
32749;DHT22;19119;52.474;13.710;2023-11-22T01:44:01;0.80;99.90
32749;DHT22;19119;52.474;13.710;2023-11-22T01:46:27;0.80;99.90
32749;DHT22;19119;52.474;13.710;2023-11-22T01:48:53;0.70;99.90
32749;DHT22;19119;52.474;13.710;2023-11-22T01:51:22;0.70;99.90
32749;DHT22;19119;52.474;13.710;2023-11-22T01:53:49;0.60;99.90
32749;DHT22;19119;52.474;13.710;2023-11-22T01:56:15;0.60;99.90
32749;DHT22;19119;52.474;13.710;2023-11-22T01:58:43;0.50;99.90
32749;DHT22;19119;52.474;13.710;2023-11-22T02:01:08;0.50;99.90
32749;DHT22;19119;52.474;13.710;2023-11-22T02:03:34;0.40;99.90
32749;DHT22;19119;52.474;13.710;2023-11-22T02:06:00;0.30;99.90
32749;DHT22;19119;52.474;13.710;2023-11-22T02:08:25;0.30;99.90
32749;DHT22;19119;52.474;13.710;2023-11-22T02:10:59;0.20;99.90
32749;DHT22;19119;52.474;13.710;2023-11-22T02:13:25;0.10;99.90
32749;DHT22;19119;52.474;13.710;2023-11-22T02:15:51;0.10;99.90
32749;DHT22;19119;52.474;13.710;2023-11-22T02:18:21;0.00;99.90
32749;DHT22;19119;52.474;13.710;2023-11-22T02:20:47;0.00;99.90
32749;DHT22;19119;52.474;13.710;2023-11-22T02:23:12;0.00;99.90
32749;DHT22;19119;52.474;13.710;2023-11-22T02:25:37;0.00;99.90
32749;DHT22;19119;52.474;13.710;2023-11-22T02:28:03;-0.10;99.90
32749;DHT22;19119;52.474;13.710;2023-11-22T02:30:28;-0.10;99.90
32749;DHT22;19119;52.474;13.710;2023-11-22T02:32:54;-0.10;99.90
32749;DHT22;19119;52.474;13.710;2023-11-22T02:35:19;-0.20;99.90
32749;DHT22;19119;52.474;13.710;2023-11-22T02:37:45;-0.20;99.90
32749;DHT22;19119;52.474;13.710;2023-11-22T02:40:20;-0.20;99.90
32749;DHT22;19119;52.474;13.710;2023-11-22T02:42:49;-0.40;99.90
32749;DHT22;19119;52.474;13.710;2023-11-22T02:45:15;-0.40;99.90
32749;DHT22;19119;52.474;13.710;2023-11-22T02:47:41;-0.40;99.90
32749;DHT22;19119;52.474;13.710;2023-11-22T02:50:06;-0.40;99.90
32749;DHT22;19119;52.474;13.710;2023-11-22T02:52:32;-0.40;99.90
32749;DHT22;19119;52.474;13.710;2023-11-22T02:54:58;-0.50;99.90
32749;DHT22;19119;52.474;13.710;2023-11-22T02:57:23;-0.60;99.90
32749;DHT22;19119;52.474;13.710;2023-11-22T02:59:49;-0.60;99.90
32749;DHT22;19119;52.474;13.710;2023-11-22T03:02:14;-0.60;99.90
32749;DHT22;19119;52.474;13.710;2023-11-22T03:04:42;-0.60;99.90
32749;DHT22;19119;52.474;13.710;2023-11-22T03:07:08;-0.60;99.90
32749;DHT22;19119;52.474;13.710;2023-11-22T03:09:33;-0.60;99.90
32749;DHT22;19119;52.474;13.710;2023-11-22T03:11:59;-0.60;99.90
32749;DHT22;19119;52.474;13.710;2023-11-22T03:14:25;-0.60;99.90
32749;DHT22;19119;52.474;13.710;2023-11-22T03:16:50;-0.60;99.90
32749;DHT22;19119;52.474;13.710;2023-11-22T03:19:16;-0.60;99.90
32749;DHT22;19119;52.474;13.710;2023-11-22T03:21:41;-0.60;99.90
32749;DHT22;19119;52.474;13.710;2023-11-22T03:24:09;-0.70;99.90
32749;DHT22;19119;52.474;13.710;2023-11-22T03:26:34;-0.70;99.90
32749;DHT22;19119;52.474;13.710;2023-11-22T03:29:00;-0.70;99.90
32749;DHT22;19119;52.474;13.710;2023-11-22T03:31:26;-0.80;99.90
32749;DHT22;19119;52.474;13.710;2023-11-22T03:33:52;-0.70;99.90
32749;DHT22;19119;52.474;13.710;2023-11-22T03:36:17;-0.70;99.90
32749;DHT22;19119;52.474;13.710;2023-11-22T03:38:42;-0.90;99.90
32749;DHT22;19119;52.474;13.710;2023-11-22T03:41:08;-0.90;99.90
32749;DHT22;19119;52.474;13.710;2023-11-22T03:43:34;-0.90;99.90
32749;DHT22;19119;52.474;13.710;2023-11-22T03:45:59;-0.90;99.90
32749;DHT22;19119;52.474;13.710;2023-11-22T03:48:24;-1.00;99.90
32749;DHT22;19119;52.474;13.710;2023-11-22T03:50:51;-1.00;99.90
32749;DHT22;19119;52.474;13.710;2023-11-22T03:53:16;-1.00;99.90
32749;DHT22;19119;52.474;13.710;2023-11-22T03:55:42;-1.00;99.90
32749;DHT22;19119;52.474;13.710;2023-11-22T03:58:07;-1.10;99.90
32749;DHT22;19119;52.474;13.710;2023-11-22T04:00:33;-1.10;99.90
32749;DHT22;19119;52.474;13.710;2023-11-22T04:02:58;-1.10;99.90
32749;DHT22;19119;52.474;13.710;2023-11-22T04:05:26;-1.00;99.90
32749;DHT22;19119;52.474;13.710;2023-11-22T04:07:52;-1.00;99.90
32749;DHT22;19119;52.474;13.710;2023-11-22T04:10:17;-1.10;99.90
32749;DHT22;19119;52.474;13.710;2023-11-22T04:12:44;-1.10;99.90
32749;DHT22;19119;52.474;13.710;2023-11-22T04:15:10;-1.10;99.90
32749;DHT22;19119;52.474;13.710;2023-11-22T04:17:35;-1.10;99.90
32749;DHT22;19119;52.474;13.710;2023-11-22T04:20:03;-1.10;99.90
32749;DHT22;19119;52.474;13.710;2023-11-22T04:22:31;-1.20;99.90
32749;DHT22;19119;52.474;13.710;2023-11-22T04:24:59;-1.20;99.90
32749;DHT22;19119;52.474;13.710;2023-11-22T04:27:24;-1.20;99.90
32749;DHT22;19119;52.474;13.710;2023-11-22T04:29:50;-1.30;99.90
32749;DHT22;19119;52.474;13.710;2023-11-22T04:32:15;-1.40;99.90
32749;DHT22;19119;52.474;13.710;2023-11-22T04:34:40;-1.40;99.90
32749;DHT22;19119;52.474;13.710;2023-11-22T04:37:06;-1.40;99.90
32749;DHT22;19119;52.474;13.710;2023-11-22T04:39:32;-1.40;99.90
32749;DHT22;19119;52.474;13.710;2023-11-22T04:41:57;-1.40;99.90
32749;DHT22;19119;52.474;13.710;2023-11-22T04:44:22;-1.40;99.90
32749;DHT22;19119;52.474;13.710;2023-11-22T04:46:48;-1.40;99.90
32749;DHT22;19119;52.474;13.710;2023-11-22T04:49:13;-1.40;99.90
32749;DHT22;19119;52.474;13.710;2023-11-22T04:51:39;-1.40;99.90
32749;DHT22;19119;52.474;13.710;2023-11-22T04:54:04;-1.50;99.90
32749;DHT22;19119;52.474;13.710;2023-11-22T04:56:30;-1.50;99.90
32749;DHT22;19119;52.474;13.710;2023-11-22T04:58:55;-1.50;99.90
32749;DHT22;19119;52.474;13.710;2023-11-22T05:01:21;-1.50;99.90
32749;DHT22;19119;52.474;13.710;2023-11-22T05:03:47;-1.50;99.90
32749;DHT22;19119;52.474;13.710;2023-11-22T05:06:12;-1.50;99.90
32749;DHT22;19119;52.474;13.710;2023-11-22T05:08:37;-1.50;99.90
32749;DHT22;19119;52.474;13.710;2023-11-22T05:11:03;-1.50;99.90
32749;DHT22;19119;52.474;13.710;2023-11-22T05:13:28;-1.60;99.90
32749;DHT22;19119;52.474;13.710;2023-11-22T05:15:55;-1.60;99.90
32749;DHT22;19119;52.474;13.710;2023-11-22T05:18:20;-1.60;99.90
32749;DHT22;19119;52.474;13.710;2023-11-22T05:20:46;-1.60;99.90
32749;DHT22;19119;52.474;13.710;2023-11-22T05:23:13;-1.60;99.90
32749;DHT22;19119;52.474;13.710;2023-11-22T05:25:39;-1.70;99.90
32749;DHT22;19119;52.474;13.710;2023-11-22T05:28:04;-1.70;99.90
32749;DHT22;19119;52.474;13.710;2023-11-22T05:30:30;-1.80;99.90
32749;DHT22;19119;52.474;13.710;2023-11-22T05:32:55;-1.70;99.90
32749;DHT22;19119;52.474;13.710;2023-11-22T05:35:21;-1.80;99.90
32749;DHT22;19119;52.474;13.710;2023-11-22T05:37:47;-1.80;99.90
32749;DHT22;19119;52.474;13.710;2023-11-22T05:40:12;-1.80;99.90
32749;DHT22;19119;52.474;13.710;2023-11-22T05:42:38;-1.80;99.90
32749;DHT22;19119;52.474;13.710;2023-11-22T05:45:04;-1.80;99.90
32749;DHT22;19119;52.474;13.710;2023-11-22T05:47:30;-1.80;99.90
32749;DHT22;19119;52.474;13.710;2023-11-22T05:49:56;-2.00;99.90
32749;DHT22;19119;52.474;13.710;2023-11-22T05:52:21;-2.00;99.90
32749;DHT22;19119;52.474;13.710;2023-11-22T05:54:49;-2.00;99.90
32749;DHT22;19119;52.474;13.710;2023-11-22T05:57:14;-2.00;99.90
32749;DHT22;19119;52.474;13.710;2023-11-22T05:59:40;-2.00;99.90
32749;DHT22;19119;52.474;13.710;2023-11-22T06:02:06;-2.10;99.90
32749;DHT22;19119;52.474;13.710;2023-11-22T06:04:31;-2.20;99.90
32749;DHT22;19119;52.474;13.710;2023-11-22T06:06:57;-2.20;99.90
32749;DHT22;19119;52.474;13.710;2023-11-22T06:09:22;-2.10;99.90
32749;DHT22;19119;52.474;13.710;2023-11-22T06:11:48;-2.20;99.90
32749;DHT22;19119;52.474;13.710;2023-11-22T06:14:14;-2.10;99.90
32749;DHT22;19119;52.474;13.710;2023-11-22T06:16:39;-2.20;99.90
32749;DHT22;19119;52.474;13.710;2023-11-22T06:19:04;-2.30;99.90
32749;DHT22;19119;52.474;13.710;2023-11-22T06:21:30;-2.30;99.90
32749;DHT22;19119;52.474;13.710;2023-11-22T06:23:55;-2.30;99.90
32749;DHT22;19119;52.474;13.710;2023-11-22T06:26:23;-2.40;99.90
32749;DHT22;19119;52.474;13.710;2023-11-22T06:28:49;-2.40;99.90
32749;DHT22;19119;52.474;13.710;2023-11-22T06:31:15;-2.40;99.90
32749;DHT22;19119;52.474;13.710;2023-11-22T06:33:40;-2.40;99.90
32749;DHT22;19119;52.474;13.710;2023-11-22T06:36:05;-2.40;99.90
32749;DHT22;19119;52.474;13.710;2023-11-22T06:38:31;-2.40;99.90
32749;DHT22;19119;52.474;13.710;2023-11-22T06:40:56;-2.50;99.90
32749;DHT22;19119;52.474;13.710;2023-11-22T06:43:25;-2.50;99.90
32749;DHT22;19119;52.474;13.710;2023-11-22T06:45:50;-2.60;99.90
32749;DHT22;19119;52.474;13.710;2023-11-22T06:48:16;-2.60;99.90
32749;DHT22;19119;52.474;13.710;2023-11-22T06:50:42;-2.60;99.90
32749;DHT22;19119;52.474;13.710;2023-11-22T06:53:07;-2.70;99.90
32749;DHT22;19119;52.474;13.710;2023-11-22T06:55:32;-2.60;99.90
32749;DHT22;19119;52.474;13.710;2023-11-22T06:57:58;-2.60;99.90
32749;DHT22;19119;52.474;13.710;2023-11-22T07:00:24;-2.50;99.90
32749;DHT22;19119;52.474;13.710;2023-11-22T07:02:49;-2.50;99.90
32749;DHT22;19119;52.474;13.710;2023-11-22T07:05:15;-2.50;99.90
32749;DHT22;19119;52.474;13.710;2023-11-22T07:07:40;-2.50;99.90
32749;DHT22;19119;52.474;13.710;2023-11-22T07:10:06;-2.50;99.90
32749;DHT22;19119;52.474;13.710;2023-11-22T07:12:32;-2.50;99.90
32749;DHT22;19119;52.474;13.710;2023-11-22T07:14:59;-2.40;99.90
32749;DHT22;19119;52.474;13.710;2023-11-22T07:17:25;-2.40;99.90
32749;DHT22;19119;52.474;13.710;2023-11-22T07:19:53;-2.30;99.90
32749;DHT22;19119;52.474;13.710;2023-11-22T07:22:18;-2.30;99.90
32749;DHT22;19119;52.474;13.710;2023-11-22T07:24:49;-2.30;99.90
32749;DHT22;19119;52.474;13.710;2023-11-22T07:27:19;-2.30;99.90
32749;DHT22;19119;52.474;13.710;2023-11-22T07:29:45;-2.20;99.90
32749;DHT22;19119;52.474;13.710;2023-11-22T07:32:11;-2.20;99.90
32749;DHT22;19119;52.474;13.710;2023-11-22T07:34:38;-2.20;99.90
32749;DHT22;19119;52.474;13.710;2023-11-22T07:37:04;-2.20;99.90
32749;DHT22;19119;52.474;13.710;2023-11-22T07:39:32;-2.10;99.90
32749;DHT22;19119;52.474;13.710;2023-11-22T07:41:58;-2.00;99.90
32749;DHT22;19119;52.474;13.710;2023-11-22T07:44:23;-1.80;99.90
32749;DHT22;19119;52.474;13.710;2023-11-22T07:46:52;-1.80;99.90
32749;DHT22;19119;52.474;13.710;2023-11-22T07:49:19;-1.70;99.90
32749;DHT22;19119;52.474;13.710;2023-11-22T07:51:45;-1.70;99.90
32749;DHT22;19119;52.474;13.710;2023-11-22T07:54:10;-1.50;99.90
32749;DHT22;19119;52.474;13.710;2023-11-22T07:56:41;-1.50;99.90
32749;DHT22;19119;52.474;13.710;2023-11-22T07:59:08;-1.30;99.90
32749;DHT22;19119;52.474;13.710;2023-11-22T08:01:33;-1.30;99.90
32749;DHT22;19119;52.474;13.710;2023-11-22T08:03:59;-1.30;99.90
32749;DHT22;19119;52.474;13.710;2023-11-22T08:06:24;-1.20;99.90
32749;DHT22;19119;52.474;13.710;2023-11-22T08:08:52;-1.20;99.90
32749;DHT22;19119;52.474;13.710;2023-11-22T08:11:18;-1.20;99.90
32749;DHT22;19119;52.474;13.710;2023-11-22T08:13:44;-1.20;99.90
32749;DHT22;19119;52.474;13.710;2023-11-22T08:16:10;-1.10;99.90
32749;DHT22;19119;52.474;13.710;2023-11-22T08:18:36;-1.00;99.90
32749;DHT22;19119;52.474;13.710;2023-11-22T08:21:01;-1.00;99.90
32749;DHT22;19119;52.474;13.710;2023-11-22T08:23:27;-1.00;99.90
32749;DHT22;19119;52.474;13.710;2023-11-22T08:25:52;-1.00;99.90
32749;DHT22;19119;52.474;13.710;2023-11-22T08:28:18;-0.90;99.90
32749;DHT22;19119;52.474;13.710;2023-11-22T08:30:44;-0.90;99.90
32749;DHT22;19119;52.474;13.710;2023-11-22T08:33:09;-0.80;99.90
32749;DHT22;19119;52.474;13.710;2023-11-22T08:35:35;-0.70;99.90
32749;DHT22;19119;52.474;13.710;2023-11-22T08:38:01;-0.50;99.90
32749;DHT22;19119;52.474;13.710;2023-11-22T08:40:28;-0.30;99.90
32749;DHT22;19119;52.474;13.710;2023-11-22T08:42:54;0.00;99.90
32749;DHT22;19119;52.474;13.710;2023-11-22T08:45:20;0.30;99.90
32749;DHT22;19119;52.474;13.710;2023-11-22T08:47:45;0.40;99.90
32749;DHT22;19119;52.474;13.710;2023-11-22T08:50:11;0.60;99.90
32749;DHT22;19119;52.474;13.710;2023-11-22T08:52:37;0.90;99.90
32749;DHT22;19119;52.474;13.710;2023-11-22T08:55:04;1.10;99.90
32749;DHT22;19119;52.474;13.710;2023-11-22T08:57:29;1.30;99.90
32749;DHT22;19119;52.474;13.710;2023-11-22T08:59:55;1.30;99.90
32749;DHT22;19119;52.474;13.710;2023-11-22T09:02:21;1.30;99.90
32749;DHT22;19119;52.474;13.710;2023-11-22T09:04:48;1.20;99.90
32749;DHT22;19119;52.474;13.710;2023-11-22T09:07:13;1.40;99.90
32749;DHT22;19119;52.474;13.710;2023-11-22T09:09:40;1.50;99.90
32749;DHT22;19119;52.474;13.710;2023-11-22T09:12:07;1.60;99.90
32749;DHT22;19119;52.474;13.710;2023-11-22T09:14:40;1.40;99.90
32749;DHT22;19119;52.474;13.710;2023-11-22T09:17:09;1.20;99.90
32749;DHT22;19119;52.474;13.710;2023-11-22T09:19:35;1.00;99.90
32749;DHT22;19119;52.474;13.710;2023-11-22T09:22:01;0.90;99.90
32749;DHT22;19119;52.474;13.710;2023-11-22T09:24:26;0.80;99.90
32749;DHT22;19119;52.474;13.710;2023-11-22T09:26:52;0.80;99.90
32749;DHT22;19119;52.474;13.710;2023-11-22T09:29:17;0.80;99.90
32749;DHT22;19119;52.474;13.710;2023-11-22T09:31:43;0.80;99.90
32749;DHT22;19119;52.474;13.710;2023-11-22T09:34:11;0.80;99.90
32749;DHT22;19119;52.474;13.710;2023-11-22T09:36:37;0.80;99.90
32749;DHT22;19119;52.474;13.710;2023-11-22T09:39:02;0.80;99.90
32749;DHT22;19119;52.474;13.710;2023-11-22T09:41:28;0.80;99.90
32749;DHT22;19119;52.474;13.710;2023-11-22T09:43:54;0.70;99.90
32749;DHT22;19119;52.474;13.710;2023-11-22T09:46:21;0.70;99.90
32749;DHT22;19119;52.474;13.710;2023-11-22T09:48:48;0.70;99.90
32749;DHT22;19119;52.474;13.710;2023-11-22T09:51:20;0.60;99.90
32749;DHT22;19119;52.474;13.710;2023-11-22T09:56:30;0.80;99.90
32749;DHT22;19119;52.474;13.710;2023-11-22T09:58:57;0.80;99.90
32749;DHT22;19119;52.474;13.710;2023-11-22T10:01:23;0.70;99.90
32749;DHT22;19119;52.474;13.710;2023-11-22T10:03:49;0.70;99.90
32749;DHT22;19119;52.474;13.710;2023-11-22T10:06:14;0.70;99.90
32749;DHT22;19119;52.474;13.710;2023-11-22T10:08:40;0.80;99.90
32749;DHT22;19119;52.474;13.710;2023-11-22T10:11:06;0.80;99.90
32749;DHT22;19119;52.474;13.710;2023-11-22T10:13:32;0.80;99.90
32749;DHT22;19119;52.474;13.710;2023-11-22T10:15:59;0.90;99.90
32749;DHT22;19119;52.474;13.710;2023-11-22T10:18:33;1.00;99.90
32749;DHT22;19119;52.474;13.710;2023-11-22T10:21:00;1.00;99.90
32749;DHT22;19119;52.474;13.710;2023-11-22T10:23:28;1.10;99.90
32749;DHT22;19119;52.474;13.710;2023-11-22T10:25:54;1.10;99.90
32749;DHT22;19119;52.474;13.710;2023-11-22T10:28:26;1.10;99.90
32749;DHT22;19119;52.474;13.710;2023-11-22T10:30:53;1.20;99.90
32749;DHT22;19119;52.474;13.710;2023-11-22T10:33:18;1.20;99.90
32749;DHT22;19119;52.474;13.710;2023-11-22T10:35:49;1.30;99.90
32749;DHT22;19119;52.474;13.710;2023-11-22T10:38:14;1.30;99.90
32749;DHT22;19119;52.474;13.710;2023-11-22T10:40:40;1.40;99.90
32749;DHT22;19119;52.474;13.710;2023-11-22T10:43:06;1.30;99.90
32749;DHT22;19119;52.474;13.710;2023-11-22T10:45:33;1.40;99.90
32749;DHT22;19119;52.474;13.710;2023-11-22T10:48:00;1.50;99.90
32749;DHT22;19119;52.474;13.710;2023-11-22T10:50:26;1.60;99.90
32749;DHT22;19119;52.474;13.710;2023-11-22T10:52:51;1.60;99.90
32749;DHT22;19119;52.474;13.710;2023-11-22T10:55:20;1.60;99.90
32749;DHT22;19119;52.474;13.710;2023-11-22T10:57:47;1.60;99.90
32749;DHT22;19119;52.474;13.710;2023-11-22T11:00:16;1.60;99.90
32749;DHT22;19119;52.474;13.710;2023-11-22T11:02:44;1.60;99.90
32749;DHT22;19119;52.474;13.710;2023-11-22T11:05:32;1.60;99.90
32749;DHT22;19119;52.474;13.710;2023-11-22T11:08:07;1.70;99.90
32749;DHT22;19119;52.474;13.710;2023-11-22T11:10:42;1.80;99.90
32749;DHT22;19119;52.474;13.710;2023-11-22T11:13:08;1.90;99.90
32749;DHT22;19119;52.474;13.710;2023-11-22T11:15:40;1.80;99.90
32749;DHT22;19119;52.474;13.710;2023-11-22T11:18:09;1.90;99.90
32749;DHT22;19119;52.474;13.710;2023-11-22T11:23:31;1.90;99.90
32749;DHT22;19119;52.474;13.710;2023-11-22T11:25:57;2.00;99.90
32749;DHT22;19119;52.474;13.710;2023-11-22T11:28:23;2.10;99.90
32749;DHT22;19119;52.474;13.710;2023-11-22T11:30:53;2.20;99.90
32749;DHT22;19119;52.474;13.710;2023-11-22T11:33:19;2.20;99.90
32749;DHT22;19119;52.474;13.710;2023-11-22T11:35:51;2.20;99.90
32749;DHT22;19119;52.474;13.710;2023-11-22T11:38:20;2.20;99.90
32749;DHT22;19119;52.474;13.710;2023-11-22T11:40:46;2.10;99.90
32749;DHT22;19119;52.474;13.710;2023-11-22T11:43:12;2.10;99.90
32749;DHT22;19119;52.474;13.710;2023-11-22T11:45:44;2.20;99.90
32749;DHT22;19119;52.474;13.710;2023-11-22T11:48:15;2.20;99.90
32749;DHT22;19119;52.474;13.710;2023-11-22T11:50:41;2.20;99.90
32749;DHT22;19119;52.474;13.710;2023-11-22T11:53:07;2.20;99.90
32749;DHT22;19119;52.474;13.710;2023-11-22T11:55:32;2.30;99.90
32749;DHT22;19119;52.474;13.710;2023-11-22T11:58:06;2.20;99.90
32749;DHT22;19119;52.474;13.710;2023-11-22T12:00:37;2.20;99.90
32749;DHT22;19119;52.474;13.710;2023-11-22T12:03:06;2.20;99.90
32749;DHT22;19119;52.474;13.710;2023-11-22T12:05:32;2.20;99.90
32749;DHT22;19119;52.474;13.710;2023-11-22T12:07:58;2.20;99.90
32749;DHT22;19119;52.474;13.710;2023-11-22T12:10:23;2.40;99.90
32749;DHT22;19119;52.474;13.710;2023-11-22T12:12:49;2.40;99.90
32749;DHT22;19119;52.474;13.710;2023-11-22T12:15:15;2.50;99.90
32749;DHT22;19119;52.474;13.710;2023-11-22T12:17:40;2.60;99.90
32749;DHT22;19119;52.474;13.710;2023-11-22T12:20:10;2.60;99.90
32749;DHT22;19119;52.474;13.710;2023-11-22T12:22:37;2.70;99.90
32749;DHT22;19119;52.474;13.710;2023-11-22T12:25:02;2.80;99.90
32749;DHT22;19119;52.474;13.710;2023-11-22T12:27:28;2.90;99.90
32749;DHT22;19119;52.474;13.710;2023-11-22T12:29:53;2.90;99.90
32749;DHT22;19119;52.474;13.710;2023-11-22T12:32:23;2.90;99.90
32749;DHT22;19119;52.474;13.710;2023-11-22T12:34:49;3.00;99.90
32749;DHT22;19119;52.474;13.710;2023-11-22T12:37:14;3.20;99.90
32749;DHT22;19119;52.474;13.710;2023-11-22T12:39:40;3.30;99.90
32749;DHT22;19119;52.474;13.710;2023-11-22T12:42:07;3.40;99.80
32749;DHT22;19119;52.474;13.710;2023-11-22T12:44:46;3.30;99.90
32749;DHT22;19119;52.474;13.710;2023-11-22T12:47:12;3.20;99.90
32749;DHT22;19119;52.474;13.710;2023-11-22T12:49:47;3.20;99.70
32749;DHT22;19119;52.474;13.710;2023-11-22T12:52:12;3.30;99.90
32749;DHT22;19119;52.474;13.710;2023-11-22T12:54:37;3.30;99.90
32749;DHT22;19119;52.474;13.710;2023-11-22T12:57:08;3.40;99.90
32749;DHT22;19119;52.474;13.710;2023-11-22T12:59:35;3.40;99.90
32749;DHT22;19119;52.474;13.710;2023-11-22T13:02:00;3.40;99.90
32749;DHT22;19119;52.474;13.710;2023-11-22T13:04:27;3.30;99.40
32749;DHT22;19119;52.474;13.710;2023-11-22T13:06:53;3.30;99.50
32749;DHT22;19119;52.474;13.710;2023-11-22T13:09:19;3.30;99.70
32749;DHT22;19119;52.474;13.710;2023-11-22T13:11:44;3.40;99.90
32749;DHT22;19119;52.474;13.710;2023-11-22T13:14:11;3.40;99.90
32749;DHT22;19119;52.474;13.710;2023-11-22T13:16:39;3.50;99.90
32749;DHT22;19119;52.474;13.710;2023-11-22T13:19:05;3.50;99.90
32749;DHT22;19119;52.474;13.710;2023-11-22T13:21:31;3.40;99.90
32749;DHT22;19119;52.474;13.710;2023-11-22T13:23:56;3.40;99.90
32749;DHT22;19119;52.474;13.710;2023-11-22T13:26:24;3.20;99.90
32749;DHT22;19119;52.474;13.710;2023-11-22T13:28:49;3.30;99.90
32749;DHT22;19119;52.474;13.710;2023-11-22T13:31:15;3.20;99.90
32749;DHT22;19119;52.474;13.710;2023-11-22T13:33:40;3.30;99.90
32749;DHT22;19119;52.474;13.710;2023-11-22T13:36:09;3.40;99.90
32749;DHT22;19119;52.474;13.710;2023-11-22T13:38:34;3.20;99.90
32749;DHT22;19119;52.474;13.710;2023-11-22T13:41:00;3.10;99.90
32749;DHT22;19119;52.474;13.710;2023-11-22T13:43:26;3.00;99.90
32749;DHT22;19119;52.474;13.710;2023-11-22T13:45:52;2.90;99.90
32749;DHT22;19119;52.474;13.710;2023-11-22T13:48:17;2.90;99.90
32749;DHT22;19119;52.474;13.710;2023-11-22T13:50:43;2.90;99.90
32749;DHT22;19119;52.474;13.710;2023-11-22T13:53:08;2.90;99.90
32749;DHT22;19119;52.474;13.710;2023-11-22T13:55:36;2.80;99.90
32749;DHT22;19119;52.474;13.710;2023-11-22T13:58:02;2.70;99.90
32749;DHT22;19119;52.474;13.710;2023-11-22T14:00:28;2.80;99.90
32749;DHT22;19119;52.474;13.710;2023-11-22T14:02:58;2.90;99.90
32749;DHT22;19119;52.474;13.710;2023-11-22T14:05:30;2.80;99.90
32749;DHT22;19119;52.474;13.710;2023-11-22T14:07:55;2.70;99.90
32749;DHT22;19119;52.474;13.710;2023-11-22T14:10:21;2.60;99.90
32749;DHT22;19119;52.474;13.710;2023-11-22T14:12:48;2.60;99.90
32749;DHT22;19119;52.474;13.710;2023-11-22T14:15:14;2.70;99.90
32749;DHT22;19119;52.474;13.710;2023-11-22T14:17:40;2.70;99.90
32749;DHT22;19119;52.474;13.710;2023-11-22T14:20:12;2.70;99.90
32749;DHT22;19119;52.474;13.710;2023-11-22T14:22:38;2.60;99.90
32749;DHT22;19119;52.474;13.710;2023-11-22T14:25:04;2.60;99.90
32749;DHT22;19119;52.474;13.710;2023-11-22T14:27:34;2.50;99.90
32749;DHT22;19119;52.474;13.710;2023-11-22T14:29:59;2.40;99.90
32749;DHT22;19119;52.474;13.710;2023-11-22T14:32:25;2.30;99.90
32749;DHT22;19119;52.474;13.710;2023-11-22T14:34:50;2.30;99.90
32749;DHT22;19119;52.474;13.710;2023-11-22T14:37:18;2.30;99.90
32749;DHT22;19119;52.474;13.710;2023-11-22T14:39:44;2.30;99.90
32749;DHT22;19119;52.474;13.710;2023-11-22T14:42:09;2.20;99.90
32749;DHT22;19119;52.474;13.710;2023-11-22T14:44:36;2.20;99.90
32749;DHT22;19119;52.474;13.710;2023-11-22T14:47:02;2.20;99.90
32749;DHT22;19119;52.474;13.710;2023-11-22T14:49:37;2.10;99.90
32749;DHT22;19119;52.474;13.710;2023-11-22T14:52:03;2.00;99.90
32749;DHT22;19119;52.474;13.710;2023-11-22T14:54:29;2.00;99.90
32749;DHT22;19119;52.474;13.710;2023-11-22T14:56:54;1.90;99.90
32749;DHT22;19119;52.474;13.710;2023-11-22T14:59:25;1.80;99.90
32749;DHT22;19119;52.474;13.710;2023-11-22T15:01:51;1.80;99.90
32749;DHT22;19119;52.474;13.710;2023-11-22T15:04:17;1.70;99.90
32749;DHT22;19119;52.474;13.710;2023-11-22T15:06:42;1.70;99.90
32749;DHT22;19119;52.474;13.710;2023-11-22T15:09:10;1.50;99.90
32749;DHT22;19119;52.474;13.710;2023-11-22T15:11:37;1.60;99.90
32749;DHT22;19119;52.474;13.710;2023-11-22T15:14:03;1.60;99.90
32749;DHT22;19119;52.474;13.710;2023-11-22T15:16:28;1.60;99.90
32749;DHT22;19119;52.474;13.710;2023-11-22T15:18:54;1.50;99.90
32749;DHT22;19119;52.474;13.710;2023-11-22T15:21:19;1.50;99.90
32749;DHT22;19119;52.474;13.710;2023-11-22T15:23:45;1.50;99.90
32749;DHT22;19119;52.474;13.710;2023-11-22T15:26:10;1.50;99.90